METAR Data
IDs: Format: Raw Decoded Include TAF

Data at: 0315 UTC 25 Feb 2021

KCGF 250245Z 29015G22KT 20SM BKN030 OVC040 03/M01 A3002